Time;durP1;ratioP1;P1;durP2;ratioP2;P2;SDS_P1;SDS_P2;PMS_P1;PMS_P2;Temp;Humidity;BMP_temperature;BMP_pressure;BME280_temperature;BME280_humidity;BME280_pressure;Samples;Min_cycle;Max_cycle;Signal;HPM_P1;HPM_P2
2022/03/17 00:01:25;;;;;;;25.33;22.07;;;10.90;99.90;;;;;;5077333;28;20760;-59
2022/03/17 00:04:00;;;;;;;26.10;22.00;;;10.90;99.90;;;;;;5076767;28;20496;-56
2022/03/17 00:06:32;;;;;;;24.53;21.87;;;10.90;99.90;;;;;;5050617;28;20477;-60
2022/03/17 00:09:03;;;;;;;26.10;23.23;;;10.90;99.90;;;;;;5057092;28;20875;-57
2022/03/17 00:11:32;;;;;;;28.70;23.73;;;10.90;99.90;;;;;;5057941;28;20473;-55
2022/03/17 00:14:05;;;;;;;25.10;21.83;;;10.90;99.90;;;;;;5057718;28;20470;-59
2022/03/17 00:16:41;;;;;;;27.50;22.83;;;10.90;99.90;;;;;;5050016;28;20463;-60
2022/03/17 00:19:09;;;;;;;28.73;22.20;;;10.90;99.90;;;;;;5049834;28;20469;-58
2022/03/17 00:21:39;;;;;;;24.37;21.77;;;10.90;99.90;;;;;;5058824;28;20466;-59
2022/03/17 00:24:09;;;;;;;23.87;21.27;;;10.90;99.90;;;;;;5055619;28;20498;-59
2022/03/17 00:26:42;;;;;;;24.33;21.70;;;10.90;99.90;;;;;;5057061;28;20533;-60
2022/03/17 00:29:11;;;;;;;24.97;22.30;;;10.90;99.90;;;;;;5057812;28;20493;-56
2022/03/17 00:31:39;;;;;;;25.13;22.47;;;10.90;99.90;;;;;;5057631;28;20469;-58
2022/03/17 00:34:07;;;;;;;23.87;21.27;;;10.90;99.90;;;;;;5057711;28;20462;-60
2022/03/17 00:36:34;;;;;;;23.97;21.00;;;10.90;99.90;;;;;;5055048;28;20474;-57
2022/03/17 00:39:04;;;;;;;23.53;21.00;;;10.90;99.90;;;;;;5058222;28;20458;-57
2022/03/17 00:41:38;;;;;;;24.47;21.60;;;10.90;99.90;;;;;;5055975;28;20489;-59
2022/03/17 00:44:14;;;;;;;25.63;22.87;;;10.90;99.90;;;;;;5054015;28;20585;-59
2022/03/17 00:46:46;;;;;;;25.43;22.77;;;10.90;99.90;;;;;;5060893;28;20465;-55
2022/03/17 00:49:17;;;;;;;27.50;23.67;;;10.90;99.90;;;;;;5060828;28;20462;-56
2022/03/17 00:51:45;;;;;;;26.13;23.43;;;10.80;99.90;;;;;;5057625;28;20459;-55
2022/03/17 00:54:15;;;;;;;25.50;22.90;;;10.80;99.90;;;;;;5041144;28;20463;-60
2022/03/17 00:56:42;;;;;;;24.87;22.17;;;10.80;99.90;;;;;;5040724;28;20557;-60
2022/03/17 00:59:14;;;;;;;26.90;22.13;;;10.80;99.90;;;;;;5043972;28;20535;-60
2022/03/17 01:01:41;;;;;;;26.83;23.10;;;10.80;99.90;;;;;;5061653;28;20504;-59
2022/03/17 01:04:09;;;;;;;26.53;22.50;;;10.80;99.90;;;;;;5061154;28;20851;-60
2022/03/17 01:06:42;;;;;;;24.73;22.10;;;10.80;99.90;;;;;;5084523;28;20468;-59
2022/03/17 01:09:13;;;;;;;25.23;21.80;;;10.80;99.90;;;;;;5101799;28;20874;-54
2022/03/17 01:11:43;;;;;;;25.80;21.70;;;10.70;99.90;;;;;;5100963;28;20468;-57
2022/03/17 01:14:14;;;;;;;25.03;21.80;;;10.70;99.90;;;;;;5101018;28;20464;-59
2022/03/17 01:16:41;;;;;;;25.10;22.40;;;10.70;99.90;;;;;;5100966;28;20890;-60
2022/03/17 01:19:19;;;;;;;23.87;21.40;;;10.70;99.90;;;;;;5101543;28;20744;-60
2022/03/17 01:21:46;;;;;;;28.10;22.73;;;10.80;99.90;;;;;;5099515;28;20468;-59
2022/03/17 01:24:15;;;;;;;25.83;23.07;;;10.70;99.90;;;;;;5099254;28;20564;-58
2022/03/17 01:26:45;;;;;;;27.20;23.47;;;10.70;99.90;;;;;;5099700;28;20468;-60
2022/03/17 01:29:17;;;;;;;27.07;24.20;;;10.70;99.90;;;;;;5099946;28;20893;-59
2022/03/17 01:31:48;;;;;;;27.53;23.50;;;10.70;99.90;;;;;;5099127;28;20551;-60
2022/03/17 01:34:17;;;;;;;26.90;23.27;;;10.70;99.90;;;;;;5098653;28;20465;-59
2022/03/17 01:36:52;;;;;;;26.63;23.73;;;10.70;99.90;;;;;;5087879;28;20548;-60
2022/03/17 01:39:23;;;;;;;27.73;24.23;;;10.70;99.90;;;;;;5079484;28;20483;-60
2022/03/17 01:41:58;;;;;;;28.30;25.20;;;10.70;99.90;;;;;;5083886;28;20776;-55
2022/03/17 01:44:27;;;;;;;26.63;23.87;;;10.70;99.90;;;;;;5098210;28;20516;-59
2022/03/17 01:49:36;;;;;;;25.23;22.50;;;10.70;99.90;;;;;;5085216;28;20498;-57
2022/03/17 01:52:07;;;;;;;29.73;24.50;;;10.70;99.90;;;;;;5092621;28;20453;-56
2022/03/17 01:54:43;;;;;;;27.70;23.40;;;10.70;99.90;;;;;;5095140;28;20517;-56
2022/03/17 01:57:11;;;;;;;28.90;24.30;;;10.70;99.90;;;;;;5098690;28;20464;-58
2022/03/17 01:59:45;;;;;;;29.73;24.23;;;10.60;99.90;;;;;;5099259;28;20452;-58
2022/03/17 02:02:13;;;;;;;27.93;24.47;;;10.70;99.90;;;;;;5077654;28;20881;-57
2022/03/17 02:04:47;;;;;;;26.87;24.07;;;10.60;99.90;;;;;;5078662;28;20555;-58
2022/03/17 02:07:19;;;;;;;28.07;25.03;;;10.60;99.90;;;;;;5096284;28;20472;-56
2022/03/17 02:09:53;;;;;;;29.27;25.70;;;10.60;99.90;;;;;;5098541;28;20494;-58
2022/03/17 02:15:15;;;;;;;29.67;25.20;;;10.60;99.90;;;;;;5098494;28;20443;-58
2022/03/17 02:17:43;;;;;;;29.13;24.30;;;10.50;99.90;;;;;;5080771;28;20571;-58
2022/03/17 02:20:13;;;;;;;34.03;25.43;;;10.50;99.90;;;;;;5078199;28;20792;-56
2022/03/17 02:22:48;;;;;;;31.40;26.20;;;10.60;99.90;;;;;;5091435;28;20480;-58
2022/03/17 02:25:35;;;;;;;30.07;25.10;;;10.60;99.90;;;;;;5099005;28;20452;-54
2022/03/17 02:28:10;;;;;;;30.23;25.10;;;10.60;99.90;;;;;;5078596;28;20452;-55
2022/03/17 02:30:39;;;;;;;30.33;25.47;;;10.60;99.90;;;;;;5078240;28;20542;-59
2022/03/17 02:33:09;;;;;;;27.70;24.80;;;10.50;99.90;;;;;;5078268;28;20797;-60
2022/03/17 02:35:37;;;;;;;28.97;25.30;;;10.50;99.90;;;;;;5078562;28;20487;-60
2022/03/17 02:38:13;;;;;;;28.63;25.53;;;10.50;99.90;;;;;;5093626;28;20761;-56
2022/03/17 02:41:27;;;;;;;30.50;25.20;;;10.50;99.90;;;;;;5097926;28;20456;-57
2022/03/17 02:43:55;;;;;;;27.30;24.50;;;10.50;99.90;;;;;;5096680;28;20826;-59
2022/03/17 02:46:28;;;;;;;28.27;24.60;;;10.50;99.90;;;;;;5098160;28;20950;-59
2022/03/17 02:49:03;;;;;;;30.53;25.77;;;10.50;99.90;;;;;;5097819;28;20748;-58
2022/03/17 02:51:31;;;;;;;29.33;25.23;;;10.50;99.90;;;;;;5097971;28;20464;-53
2022/03/17 02:53:58;;;;;;;27.83;24.80;;;10.50;99.90;;;;;;5098467;28;20525;-56
2022/03/17 02:56:26;;;;;;;30.77;26.17;;;10.50;99.90;;;;;;5098004;28;20460;-56
2022/03/17 02:58:55;;;;;;;29.13;24.40;;;10.50;99.90;;;;;;5097621;28;20476;-53
2022/03/17 03:01:22;;;;;;;28.50;25.13;;;10.50;99.90;;;;;;5091017;28;20570;-60
2022/03/17 03:03:49;;;;;;;27.63;24.30;;;10.40;99.90;;;;;;5077480;28;20489;-56
2022/03/17 03:06:16;;;;;;;30.60;26.07;;;10.50;99.90;;;;;;5077608;28;20543;-54
2022/03/17 03:08:47;;;;;;;26.80;24.00;;;10.40;99.90;;;;;;5077017;28;20457;-57
2022/03/17 03:11:20;;;;;;;29.43;26.23;;;10.40;99.90;;;;;;5077515;28;20921;-58
2022/03/17 03:13:49;;;;;;;28.70;24.40;;;10.40;99.90;;;;;;5076504;28;20511;-56
2022/03/17 03:16:29;;;;;;;32.63;27.70;;;10.40;99.90;;;;;;5077679;28;20901;-56
2022/03/17 03:18:56;;;;;;;32.27;26.80;;;10.40;99.90;;;;;;5077940;28;20461;-60
2022/03/17 03:21:26;;;;;;;33.93;27.10;;;10.40;99.90;;;;;;5079052;28;20736;-60
2022/03/17 03:23:55;;;;;;;27.93;24.63;;;10.40;99.90;;;;;;5078897;28;20606;-58
2022/03/17 03:26:26;;;;;;;32.87;27.00;;;10.40;99.90;;;;;;5078805;28;20465;-60
2022/03/17 03:28:57;;;;;;;35.50;26.50;;;10.50;99.90;;;;;;5078186;28;20560;-57
2022/03/17 03:31:26;;;;;;;27.97;24.97;;;10.40;99.90;;;;;;5078741;28;20777;-60
2022/03/17 03:33:53;;;;;;;28.90;25.67;;;10.40;99.90;;;;;;5078722;28;20462;-60
2022/03/17 03:39:07;;;;;;;29.70;26.50;;;10.40;99.90;;;;;;5095164;28;20493;-60
2022/03/17 03:41:37;;;;;;;29.13;25.93;;;10.40;99.90;;;;;;5098539;28;20534;-60
2022/03/17 03:44:06;;;;;;;30.80;26.73;;;10.40;99.90;;;;;;5096837;28;20600;-60
2022/03/17 03:46:45;;;;;;;30.90;27.60;;;10.40;99.90;;;;;;5097715;28;20891;-56
2022/03/17 03:49:19;;;;;;;31.57;27.00;;;10.40;99.90;;;;;;5077950;28;20469;-58
2022/03/17 03:51:46;;;;;;;30.17;26.33;;;10.40;99.90;;;;;;5085738;28;20445;-60
2022/03/17 03:54:19;;;;;;;28.87;25.77;;;10.30;99.90;;;;;;5078527;28;20913;-57
2022/03/17 03:56:48;;;;;;;30.00;26.60;;;10.30;99.90;;;;;;5078199;28;20461;-59
2022/03/17 03:59:18;;;;;;;32.13;28.30;;;10.20;99.90;;;;;;5078037;28;20458;-57
2022/03/17 04:02:00;;;;;;;32.37;27.10;;;10.20;99.90;;;;;;5078646;28;20461;-60
2022/03/17 04:04:34;;;;;;;31.97;26.07;;;10.20;99.90;;;;;;5078026;28;20792;-57
2022/03/17 04:07:06;;;;;;;32.30;27.13;;;10.30;99.90;;;;;;5078245;28;20971;-59
2022/03/17 04:09:39;;;;;;;33.10;28.73;;;10.20;99.90;;;;;;5078052;28;20466;-55
2022/03/17 04:12:12;;;;;;;30.10;26.20;;;10.20;99.90;;;;;;5078132;28;20484;-60
2022/03/17 04:14:43;;;;;;;29.50;26.43;;;10.20;99.90;;;;;;5078749;28;20507;-56
2022/03/17 04:17:16;;;;;;;28.97;25.97;;;10.30;99.90;;;;;;5079207;28;20460;-58
2022/03/17 04:19:43;;;;;;;33.07;28.23;;;10.30;99.90;;;;;;5082066;28;20494;-59
2022/03/17 04:22:10;;;;;;;30.33;27.07;;;10.30;99.90;;;;;;5082394;28;20898;-57
2022/03/17 04:24:39;;;;;;;29.63;26.43;;;10.30;99.90;;;;;;5082137;28;20496;-60
2022/03/17 04:27:06;;;;;;;31.17;27.53;;;10.30;99.90;;;;;;5082231;28;20739;-60
2022/03/17 04:29:36;;;;;;;31.73;28.30;;;10.30;99.90;;;;;;5081619;28;20465;-57
2022/03/17 04:32:04;;;;;;;30.07;26.90;;;10.20;99.90;;;;;;5082375;28;20465;-58
2022/03/17 04:34:32;;;;;;;32.17;28.67;;;10.30;99.90;;;;;;5082144;28;20457;-56
2022/03/17 04:37:02;;;;;;;32.77;27.90;;;10.30;99.90;;;;;;5081798;28;20461;-55
2022/03/17 04:39:30;;;;;;;31.37;27.97;;;10.20;99.90;;;;;;5084049;28;20472;-54
2022/03/17 04:41:58;;;;;;;31.30;26.77;;;10.20;99.90;;;;;;5102637;28;20460;-56
2022/03/17 04:44:25;;;;;;;31.40;27.80;;;10.10;1.00;;;;;;5100703;28;20492;-59
2022/03/17 04:46:54;;;;;;;33.77;28.90;;;10.10;1.00;;;;;;5101001;28;20467;-60
2022/03/17 04:49:21;;;;;;;31.87;28.20;;;10.10;1.00;;;;;;5101586;28;20809;-60
2022/03/17 04:51:52;;;;;;;33.67;28.40;;;10.10;1.00;;;;;;5101318;28;20459;-60
2022/03/17 04:54:18;;;;;;;35.10;30.23;;;10.10;1.00;;;;;;5101725;28;20457;-60
2022/03/17 04:56:45;;;;;;;35.00;30.10;;;10.00;1.00;;;;;;5101379;28;20456;-60
2022/03/17 04:59:15;;;;;;;38.67;29.73;;;10.00;1.00;;;;;;5101602;28;20460;-59
2022/03/17 05:01:51;;;;;;;37.27;31.00;;;10.00;1.00;;;;;;5101543;28;20563;-61
2022/03/17 05:04:18;;;;;;;37.27;31.23;;;10.00;1.00;;;;;;5084829;28;20489;-61
2022/03/17 05:06:45;;;;;;;36.07;30.80;;;9.90;1.00;;;;;;5080503;28;20461;-60
2022/03/17 05:09:18;;;;;;;37.50;31.10;;;9.80;1.00;;;;;;5080405;28;20934;-57
2022/03/17 05:11:48;;;;;;;35.90;29.80;;;9.80;1.00;;;;;;5095936;28;20779;-55
2022/03/17 05:14:18;;;;;;;36.43;31.50;;;9.70;1.00;;;;;;5099224;28;20460;-60
2022/03/17 05:16:45;;;;;;;37.43;33.27;;;9.60;1.00;;;;;;5079693;28;20834;-60
2022/03/17 05:19:14;;;;;;;40.13;32.00;;;9.60;1.00;;;;;;5081063;28;20453;-61
2022/03/17 05:21:41;;;;;;;38.60;32.80;;;9.60;1.00;;;;;;5081644;28;20457;-60
2022/03/17 05:24:19;;;;;;;38.23;34.10;;;9.60;1.00;;;;;;5081766;28;20493;-59
2022/03/17 05:26:48;;;;;;;38.47;34.27;;;9.60;1.00;;;;;;5081875;28;20523;-58
2022/03/17 05:29:23;;;;;;;38.90;33.90;;;9.60;20.50;;;;;;5080941;28;20465;-60
2022/03/17 05:31:53;;;;;;;39.63;33.70;;;9.60;53.50;;;;;;5081573;28;20514;-60
2022/03/17 05:34:21;;;;;;;39.40;33.20;;;9.60;99.90;;;;;;5096642;28;20519;-59
2022/03/17 05:36:50;;;;;;;41.77;33.13;;;9.60;99.90;;;;;;5101221;28;20890;-60
2022/03/17 05:39:24;;;;;;;40.50;35.20;;;9.50;99.90;;;;;;5102033;28;20457;-59
2022/03/17 05:41:53;;;;;;;40.83;35.47;;;9.50;99.90;;;;;;5101388;28;20468;-61
2022/03/17 05:44:25;;;;;;;38.83;33.80;;;9.50;99.90;;;;;;5101793;28;20488;-61
2022/03/17 05:46:52;;;;;;;49.63;38.40;;;9.40;1.00;;;;;;5100284;28;20464;-61
2022/03/17 05:49:22;;;;;;;44.03;36.37;;;9.40;1.00;;;;;;5101112;28;20468;-61
2022/03/17 05:51:55;;;;;;;39.73;35.50;;;9.40;1.00;;;;;;5102247;28;20467;-61
2022/03/17 05:54:26;;;;;;;43.70;36.00;;;9.40;38.10;;;;;;5082452;28;20506;-61
2022/03/17 05:56:55;;;;;;;44.90;38.20;;;9.40;99.90;;;;;;5095779;28;20833;-61
2022/03/17 05:59:22;;;;;;;44.73;37.07;;;9.40;99.90;;;;;;5098046;28;20456;-60
2022/03/17 06:01:51;;;;;;;45.23;36.30;;;9.30;99.90;;;;;;5100693;28;20456;-62
2022/03/17 06:04:18;;;;;;;63.07;50.33;;;9.30;1.00;;;;;;5100232;28;20558;-62
2022/03/17 06:06:45;;;;;;;45.40;38.07;;;9.30;1.00;;;;;;5100690;28;20514;-63
2022/03/17 06:09:12;;;;;;;47.77;39.60;;;9.30;99.90;;;;;;5101185;28;20771;-62
2022/03/17 06:11:43;;;;;;;46.93;38.00;;;9.30;99.90;;;;;;5102702;28;20461;-62
2022/03/17 06:14:10;;;;;;;50.33;40.70;;;9.30;99.90;;;;;;5102374;28;20460;-62
2022/03/17 06:16:37;;;;;;;52.50;39.17;;;9.30;1.00;;;;;;5096078;28;20453;-61
2022/03/17 06:19:04;;;;;;;51.23;41.10;;;9.30;99.90;;;;;;5090844;28;20929;-61
2022/03/17 06:21:31;;;;;;;49.30;40.13;;;9.30;1.00;;;;;;5086308;28;20499;-61
2022/03/17 06:24:03;;;;;;;54.73;41.77;;;9.40;99.90;;;;;;5090514;28;20803;-62
2022/03/17 06:26:30;;;;;;;48.77;39.77;;;9.40;99.90;;;;;;5084422;28;20453;-62
2022/03/17 06:29:11;;;;;;;50.13;39.70;;;9.50;1.00;;;;;;5080273;28;20457;-62
2022/03/17 06:31:38;;;;;;;47.07;39.03;;;9.60;43.30;;;;;;5082490;28;20588;-62
2022/03/17 06:34:08;;;;;;;49.83;40.20;;;9.60;99.90;;;;;;5083822;28;20461;-61
2022/03/17 06:36:41;;;;;;;49.37;39.13;;;9.60;1.00;;;;;;5080160;28;20488;-64
2022/03/17 06:39:11;;;;;;;48.67;39.73;;;9.50;1.00;;;;;;5079259;28;20902;-64
2022/03/17 06:41:48;;;;;;;43.13;36.13;;;9.40;99.90;;;;;;5078108;28;20458;-65
2022/03/17 06:44:17;;;;;;;43.97;36.77;;;9.40;99.90;;;;;;5079072;28;20461;-65
2022/03/17 06:46:44;;;;;;;44.23;35.93;;;9.30;7.20;;;;;;5092876;28;20464;-65
2022/03/17 06:49:11;;;;;;;43.33;35.60;;;9.30;99.90;;;;;;5092832;28;20517;-65
2022/03/17 06:51:38;;;;;;;46.63;36.27;;;9.30;99.90;;;;;;5095250;28;20460;-64
2022/03/17 06:54:09;;;;;;;43.50;35.10;;;9.30;99.90;;;;;;5088407;28;20531;-65
2022/03/17 06:56:44;;;;;;;44.20;36.43;;;9.30;99.90;;;;;;5086164;28;20461;-65
2022/03/17 06:59:11;;;;;;;43.70;34.97;;;9.30;99.90;;;;;;5092396;28;20456;-65
2022/03/17 07:01:45;;;;;;;33.00;27.37;;;9.30;99.90;;;;;;5087624;28;20465;-65
2022/03/17 07:04:13;;;;;;;29.87;24.20;;;9.20;99.90;;;;;;5091076;28;20479;-64
2022/03/17 07:06:43;;;;;;;27.00;22.10;;;9.10;99.90;;;;;;5087301;28;20464;-65
2022/03/17 07:09:10;;;;;;;26.10;22.27;;;9.10;99.90;;;;;;5090867;28;20466;-64
2022/03/17 07:11:38;;;;;;;23.80;19.80;;;9.20;99.90;;;;;;5082799;28;20461;-64
2022/03/17 07:14:11;;;;;;;23.13;18.57;;;9.20;99.90;;;;;;5086542;28;20465;-64
2022/03/17 07:16:45;;;;;;;16.40;13.87;;;9.20;99.90;;;;;;5083497;28;20464;-65
2022/03/17 07:19:12;;;;;;;16.30;14.20;;;9.20;99.90;;;;;;5086187;28;20758;-64
2022/03/17 07:21:39;;;;;;;13.37;11.53;;;9.10;99.90;;;;;;5088556;28;20460;-63
2022/03/17 07:24:11;;;;;;;13.70;12.23;;;9.10;99.90;;;;;;5095335;28;20482;-63
2022/03/17 07:26:40;;;;;;;14.30;11.67;;;9.10;99.90;;;;;;5093560;28;20488;-64
2022/03/17 07:29:13;;;;;;;15.00;13.13;;;9.00;99.90;;;;;;5088192;28;20488;-63
2022/03/17 07:31:43;;;;;;;17.53;13.67;;;9.10;99.90;;;;;;5078730;28;20461;-63
2022/03/17 07:34:14;;;;;;;20.87;16.27;;;9.00;99.90;;;;;;5084939;28;20458;-63
2022/03/17 07:36:42;;;;;;;26.30;19.60;;;9.00;99.90;;;;;;5088126;28;20524;-62
2022/03/17 07:39:09;;;;;;;30.67;23.60;;;9.00;99.90;;;;;;5088971;28;20452;-62
2022/03/17 07:41:36;;;;;;;36.57;27.80;;;8.90;99.90;;;;;;5087906;28;20461;-62
2022/03/17 07:44:11;;;;;;;35.50;27.43;;;8.90;99.90;;;;;;5089415;28;20518;-63
2022/03/17 07:46:38;;;;;;;40.60;29.23;;;8.90;99.90;;;;;;5088648;28;20553;-62
2022/03/17 07:49:12;;;;;;;35.57;27.37;;;8.80;99.90;;;;;;5089835;28;20461;-63
2022/03/17 07:51:40;;;;;;;33.67;27.23;;;8.70;99.90;;;;;;5089009;28;20486;-63
2022/03/17 07:54:08;;;;;;;30.40;23.17;;;8.70;99.90;;;;;;5090134;28;20476;-64
2022/03/17 07:56:38;;;;;;;28.77;23.57;;;8.70;99.90;;;;;;5085970;28;20464;-63
2022/03/17 07:59:05;;;;;;;44.57;29.37;;;8.70;99.90;;;;;;5087610;28;20461;-63
2022/03/17 08:01:37;;;;;;;46.20;34.63;;;8.70;99.90;;;;;;5087474;28;20460;-62
2022/03/17 08:04:06;;;;;;;52.00;39.83;;;8.60;99.90;;;;;;5091418;28;20457;-62
2022/03/17 08:06:35;;;;;;;49.67;35.33;;;8.60;99.90;;;;;;5087888;28;20493;-62
2022/03/17 08:09:08;;;;;;;44.70;32.77;;;8.50;99.90;;;;;;5089073;28;20457;-62
2022/03/17 08:11:38;;;;;;;32.77;25.10;;;8.30;99.90;;;;;;5088687;28;20502;-62
2022/03/17 08:14:06;;;;;;;25.77;21.40;;;8.10;99.90;;;;;;5088948;28;20510;-62
2022/03/17 08:16:46;;;;;;;32.77;23.63;;;8.00;99.90;;;;;;5087057;28;20475;-63
2022/03/17 08:19:21;;;;;;;40.33;24.77;;;7.90;99.90;;;;;;5083580;28;20457;-62
2022/03/17 08:21:48;;;;;;;33.37;24.77;;;7.70;99.90;;;;;;5083707;28;20460;-62
2022/03/17 08:24:24;;;;;;;29.97;21.80;;;7.70;99.90;;;;;;5092010;28;20502;-62
2022/03/17 08:26:52;;;;;;;26.93;20.50;;;7.70;99.90;;;;;;5086676;28;20510;-63
2022/03/17 08:29:20;;;;;;;29.60;23.17;;;7.70;99.90;;;;;;5092738;28;20460;-61
2022/03/17 08:31:47;;;;;;;30.33;20.97;;;7.70;99.90;;;;;;5088764;28;20468;-62
2022/03/17 08:34:18;;;;;;;33.67;21.83;;;7.70;99.90;;;;;;5084707;28;20507;-62
2022/03/17 08:36:46;;;;;;;26.17;20.43;;;7.70;99.90;;;;;;5091743;28;20461;-59
2022/03/17 08:39:16;;;;;;;26.50;17.93;;;7.70;99.90;;;;;;5090210;28;20501;-61
2022/03/17 08:41:43;;;;;;;24.30;19.37;;;7.70;99.90;;;;;;5087370;28;20465;-62
2022/03/17 08:44:16;;;;;;;25.63;19.73;;;7.70;99.90;;;;;;5080013;28;20483;-62
2022/03/17 08:49:34;;;;;;;25.40;19.40;;;7.80;99.90;;;;;;5088724;28;20455;-62
2022/03/17 08:52:13;;;;;;;26.33;21.20;;;7.70;99.90;;;;;;5085264;28;20909;-62
2022/03/17 08:54:42;;;;;;;31.70;24.67;;;7.80;99.90;;;;;;5090733;28;20458;-61
2022/03/17 08:57:13;;;;;;;27.80;22.70;;;7.80;99.90;;;;;;5080202;28;20469;-62
2022/03/17 08:59:41;;;;;;;28.73;20.90;;;7.80;99.90;;;;;;5083905;28;20469;-62
2022/03/17 09:02:14;;;;;;;26.30;19.97;;;7.80;99.90;;;;;;5091376;28;20542;-62
2022/03/17 09:04:47;;;;;;;23.80;18.17;;;7.80;99.90;;;;;;5092183;28;20488;-62
2022/03/17 09:07:14;;;;;;;24.00;19.20;;;7.70;1.00;;;;;;5090527;28;20547;-62
2022/03/17 09:09:48;;;;;;;32.37;18.77;;;7.50;7.10;;;;;;5082495;28;20465;-62
2022/03/17 09:12:18;;;;;;;24.53;17.07;;;7.60;1.00;;;;;;5083618;28;20492;-62
2022/03/17 09:14:47;;;;;;;20.70;15.50;;;7.30;1.00;;;;;;5083799;28;20741;-62
2022/03/17 09:17:14;;;;;;;19.33;14.90;;;7.30;1.00;;;;;;5083604;28;20895;-62
2022/03/17 09:19:45;;;;;;;20.80;15.30;;;7.20;1.00;;;;;;5083730;28;20476;-62
2022/03/17 09:22:12;;;;;;;17.17;12.23;;;7.30;99.20;;;;;;5083543;28;20522;-62
2022/03/17 09:24:45;;;;;;;18.53;11.30;;;7.50;1.00;;;;;;5083727;28;20457;-62
2022/03/17 09:27:14;;;;;;;17.03;9.70;;;7.40;1.00;;;;;;5083088;28;20584;-62
2022/03/17 09:29:44;;;;;;;13.80;9.50;;;7.50;99.90;;;;;;5082033;28;20522;-62
2022/03/17 09:32:13;;;;;;;15.20;10.40;;;7.60;1.00;;;;;;5083286;28;20461;-63
2022/03/17 09:34:42;;;;;;;13.20;9.00;;;7.50;99.90;;;;;;5083246;28;20866;-63
2022/03/17 09:37:09;;;;;;;11.80;8.43;;;7.50;99.90;;;;;;5082127;28;20454;-63
2022/03/17 09:42:23;;;;;;;11.70;9.20;;;7.50;90.60;;;;;;5079843;28;20519;-63
2022/03/17 09:44:52;;;;;;;17.77;10.23;;;7.60;99.90;;;;;;5081627;28;20508;-63
2022/03/17 09:47:21;;;;;;;16.10;11.90;;;7.60;99.90;;;;;;5081986;28;20493;-63
2022/03/17 09:49:51;;;;;;;15.70;11.70;;;7.50;1.00;;;;;;5091727;28;20506;-63
2022/03/17 09:52:21;;;;;;;17.80;12.67;;;7.60;45.00;;;;;;5090746;28;20466;-63
2022/03/17 09:54:54;;;;;;;20.87;16.10;;;7.60;1.00;;;;;;5091302;28;20467;-63
2022/03/17 09:57:40;;;;;;;26.47;19.10;;;7.70;1.00;;;;;;5101968;28;20456;-63
2022/03/17 10:00:12;;;;;;;22.47;15.30;;;7.60;1.00;;;;;;5099403;28;20478;-63
2022/03/17 10:02:41;;;;;;;19.70;14.63;;;7.60;99.90;;;;;;5098510;28;20461;-64
2022/03/17 10:05:15;;;;;;;12.53;11.23;;;7.60;28.90;;;;;;5099281;28;20575;-64
2022/03/17 10:07:49;;;;;;;16.23;11.13;;;7.70;84.20;;;;;;5100292;28;20460;-64
2022/03/17 10:10:18;;;;;;;16.80;12.83;;;7.80;99.90;;;;;;5100932;28;20844;-65
2022/03/17 10:12:46;;;;;;;15.60;10.47;;;7.80;1.00;;;;;;5099727;28;20753;-65
2022/03/17 10:15:19;;;;;;;11.90;8.70;;;7.90;1.00;;;;;;5099014;28;20464;-65
2022/03/17 10:17:46;;;;;;;10.07;7.20;;;7.90;99.90;;;;;;5099577;28;20576;-65
2022/03/17 10:20:22;;;;;;;10.93;7.30;;;8.00;99.90;;;;;;5097467;28;20897;-65
2022/03/17 10:22:53;;;;;;;13.80;7.80;;;8.10;99.90;;;;;;5096225;28;20464;-66
2022/03/17 10:25:27;;;;;;;12.53;7.20;;;8.10;99.90;;;;;;5078780;28;20958;-66
2022/03/17 10:27:57;;;;;;;11.40;7.50;;;8.00;99.90;;;;;;5098178;28;20521;-66
2022/03/17 10:30:33;;;;;;;10.50;7.90;;;8.10;99.90;;;;;;5097856;28;20469;-66
2022/03/17 10:33:03;;;;;;;14.70;13.10;;;8.00;99.90;;;;;;5095304;28;20509;-66
2022/03/17 10:35:45;;;;;;;20.03;14.00;;;7.80;43.90;;;;;;5097142;28;20551;-67
2022/03/17 10:38:13;;;;;;;19.00;14.67;;;7.80;99.90;;;;;;5092688;28;20889;-66
2022/03/17 10:40:43;;;;;;;21.07;14.40;;;7.80;99.90;;;;;;5096912;28;20456;-66
2022/03/17 10:43:22;;;;;;;14.70;10.13;;;7.90;99.90;;;;;;5088031;28;20461;-66
2022/03/17 10:46:06;;;;;;;9.50;8.50;;;7.90;99.90;;;;;;5077365;28;20490;-66
2022/03/17 10:48:34;;;;;;;15.70;10.20;;;8.00;1.00;;;;;;5077064;28;20461;-66
2022/03/17 10:51:05;;;;;;;10.60;9.30;;;8.20;23.50;;;;;;5077173;28;20519;-66
2022/03/17 10:53:37;;;;;;;12.87;9.10;;;8.30;1.00;;;;;;5084977;28;20457;-66
2022/03/17 10:56:12;;;;;;;11.17;8.80;;;8.30;1.00;;;;;;5078021;28;20461;-66
2022/03/17 10:58:43;;;;;;;12.90;8.13;;;8.10;1.00;;;;;;5078361;28;20497;-67
2022/03/17 11:01:25;;;;;;;11.00;7.90;;;8.20;1.00;;;;;;5077077;28;20470;-67
2022/03/17 11:03:57;;;;;;;9.40;7.17;;;8.10;1.00;;;;;;5074585;28;20473;-66
2022/03/17 11:06:28;;;;;;;13.63;9.57;;;8.00;1.00;;;;;;5077534;28;20505;-66
2022/03/17 11:09:02;;;;;;;14.83;9.70;;;8.00;1.00;;;;;;5094701;28;20957;-66
2022/03/17 11:11:30;;;;;;;15.53;9.83;;;7.90;1.00;;;;;;5079365;28;20465;-66
2022/03/17 11:14:09;;;;;;;14.60;10.77;;;8.00;1.00;;;;;;5076757;28;20443;-66
2022/03/17 11:16:39;;;;;;;14.47;9.77;;;8.00;1.00;;;;;;5077767;28;20980;-66
2022/03/17 11:19:12;;;;;;;13.87;10.23;;;8.00;1.00;;;;;;5076960;28;20515;-66
2022/03/17 11:21:49;;;;;;;15.63;12.30;;;8.00;1.00;;;;;;5077611;28;20462;-66
2022/03/17 11:24:20;;;;;;;17.70;12.47;;;8.00;1.00;;;;;;5077086;28;20469;-66
2022/03/17 11:27:06;;;;;;;18.03;12.20;;;8.00;1.00;;;;;;5076635;28;20934;-66
2022/03/17 11:29:39;;;;;;;20.67;14.60;;;8.10;1.00;;;;;;5077175;28;20480;-66
2022/03/17 11:32:11;;;;;;;25.00;13.97;;;8.10;1.00;;;;;;5077503;28;20752;-66
2022/03/17 11:34:47;;;;;;;21.57;13.40;;;8.30;1.00;;;;;;5077370;28;20462;-66
2022/03/17 11:37:21;;;;;;;18.77;10.50;;;8.30;1.00;;;;;;5076805;28;20457;-63
2022/03/17 11:39:52;;;;;;;14.13;9.90;;;8.50;1.00;;;;;;5076797;28;20547;-63
2022/03/17 11:42:39;;;;;;;13.57;9.00;;;8.70;1.00;;;;;;5076743;28;20551;-63
2022/03/17 11:45:44;;;;;;;14.50;9.10;;;8.90;1.00;;;;;;5076539;28;20465;-63
2022/03/17 11:48:15;;;;;;;18.10;8.97;;;9.20;1.00;;;;;;5077449;28;20449;-63
2022/03/17 11:50:49;;;;;;;10.57;7.63;;;9.40;1.00;;;;;;5076771;28;20518;-63
2022/03/17 11:53:41;;;;;;;10.03;7.27;;;9.40;1.00;;;;;;5091875;28;20435;-63
2022/03/17 11:56:10;;;;;;;9.33;7.00;;;9.60;1.00;;;;;;5076714;28;20460;-62
2022/03/17 11:58:46;;;;;;;11.17;7.57;;;9.60;1.00;;;;;;5076930;28;20456;-63
2022/03/17 12:01:26;;;;;;;16.03;6.80;;;9.60;1.00;;;;;;5076518;28;20774;-62
2022/03/17 12:03:58;;;;;;;7.23;6.40;;;9.40;1.00;;;;;;5076693;28;20464;-62
2022/03/17 12:06:28;;;;;;;9.93;5.50;;;9.50;1.00;;;;;;5076312;28;20497;-62
2022/03/17 12:09:04;;;;;;;7.67;4.50;;;9.70;1.00;;;;;;5076346;28;20461;-62
2022/03/17 12:11:36;;;;;;;10.70;4.70;;;9.70;1.00;;;;;;5075646;28;20457;-62
2022/03/17 12:14:19;;;;;;;10.17;5.63;;;9.70;1.00;;;;;;5076574;28;20567;-62
2022/03/17 12:16:51;;;;;;;10.03;4.50;;;9.60;1.00;;;;;;5075938;28;20546;-62
2022/03/17 12:19:36;;;;;;;10.20;4.77;;;9.60;1.00;;;;;;5076254;28;20518;-62
2022/03/17 12:22:11;;;;;;;8.80;4.93;;;9.60;1.00;;;;;;5076149;28;20465;-62
2022/03/17 12:24:46;;;;;;;13.03;5.50;;;9.60;1.00;;;;;;5076512;28;20780;-61
2022/03/17 12:27:22;;;;;;;13.50;4.90;;;9.70;1.00;;;;;;5076666;28;20886;-64
2022/03/17 12:29:57;;;;;;;12.50;4.70;;;9.70;1.00;;;;;;5075964;28;20461;-64
2022/03/17 12:32:33;;;;;;;12.43;5.03;;;9.70;1.00;;;;;;5077764;28;20468;-64
2022/03/17 12:35:04;;;;;;;10.47;3.67;;;9.50;1.00;;;;;;5086381;28;20463;-63
2022/03/17 12:37:35;;;;;;;12.87;3.80;;;9.50;1.00;;;;;;5096363;28;20460;-64
2022/03/17 12:40:18;;;;;;;10.30;4.10;;;9.30;1.00;;;;;;5100477;28;20516;-63
2022/03/17 12:42:49;;;;;;;10.63;4.13;;;9.40;1.00;;;;;;5083111;28;20457;-64
2022/03/17 12:45:25;;;;;;;7.80;4.13;;;9.60;1.00;;;;;;5079905;28;20861;-63
2022/03/17 12:47:57;;;;;;;8.57;4.60;;;9.40;1.00;;;;;;5080190;28;20929;-63
2022/03/17 12:50:33;;;;;;;7.30;4.97;;;9.40;1.00;;;;;;5079551;28;20490;-64
2022/03/17 12:53:06;;;;;;;9.90;4.10;;;9.50;1.00;;;;;;5085883;28;20460;-64
2022/03/17 12:55:45;;;;;;;10.07;4.90;;;9.60;1.00;;;;;;5079562;28;20457;-64
2022/03/17 12:58:16;;;;;;;9.70;4.73;;;9.60;1.00;;;;;;5079547;28;20848;-63
2022/03/17 13:00:44;;;;;;;8.27;5.27;;;9.60;1.00;;;;;;5085671;28;20487;-63
2022/03/17 13:03:17;;;;;;;7.60;4.57;;;10.00;1.00;;;;;;5081205;28;20457;-63
2022/03/17 13:08:41;;;;;;;8.23;5.30;;;10.30;1.00;;;;;;5097731;28;20431;-63
2022/03/17 13:14:25;;;;;;;8.37;5.67;;;10.10;99.90;;;;;;5078543;28;20440;-63
2022/03/17 13:17:02;;;;;;;10.07;6.20;;;10.10;99.90;;;;;;5087897;28;20471;-63
2022/03/17 13:19:46;;;;;;;10.93;5.50;;;10.20;99.90;;;;;;5088844;28;20809;-63